sensor_id;sensor_type;location;lat;lon;timestamp;P1;P2;P0
44871;PMS7003;30602;51.060;17.226;2023-03-14T00:02:43;27;25;17
44871;PMS7003;30602;51.060;17.226;2023-03-14T00:06:15;35;31;19
44871;PMS7003;30602;51.060;17.226;2023-03-14T00:10:43;44;35;25
44871;PMS7003;30602;51.060;17.226;2023-03-14T00:14:50;26;21;17
44871;PMS7003;30602;51.060;17.226;2023-03-14T00:18:33;17;15;10
44871;PMS7003;30602;51.060;17.226;2023-03-14T00:30:06;16;14;12
44871;PMS7003;30602;51.060;17.226;2023-03-14T00:33:29;15;13;10
44871;PMS7003;30602;51.060;17.226;2023-03-14T00:37:24;15;15;12
44871;PMS7003;30602;51.060;17.226;2023-03-14T00:41:37;18;16;12
44871;PMS7003;30602;51.060;17.226;2023-03-14T00:45:47;15;14;11
44871;PMS7003;30602;51.060;17.226;2023-03-14T00:49:30;18;17;13
44871;PMS7003;30602;51.060;17.226;2023-03-14T00:52:53;15;14;10
44871;PMS7003;30602;51.060;17.226;2023-03-14T00:56:33;19;14;11
44871;PMS7003;30602;51.060;17.226;2023-03-14T01:01:06;19;17;12
44871;PMS7003;30602;51.060;17.226;2023-03-14T01:04:26;17;15;11
44871;PMS7003;30602;51.060;17.226;2023-03-14T01:08:49;16;13;10
44871;PMS7003;30602;51.060;17.226;2023-03-14T01:12:10;21;17;14
44871;PMS7003;30602;51.060;17.226;2023-03-14T01:15:53;22;21;15
44871;PMS7003;30602;51.060;17.226;2023-03-14T01:19:13;24;23;15
44871;PMS7003;30602;51.060;17.226;2023-03-14T01:23:30;26;22;17
44871;PMS7003;30602;51.060;17.226;2023-03-14T01:27:39;25;23;16
44871;PMS7003;30602;51.060;17.226;2023-03-14T01:31:12;26;21;16
44871;PMS7003;30602;51.060;17.226;2023-03-14T01:35:04;35;35;24
44871;PMS7003;30602;51.060;17.226;2023-03-14T01:38:36;25;25;18
44871;PMS7003;30602;51.060;17.226;2023-03-14T01:42:08;32;26;17
44871;PMS7003;30602;51.060;17.226;2023-03-14T01:46:43;38;31;20
44871;PMS7003;30602;51.060;17.226;2023-03-14T01:50:56;33;30;19
44871;PMS7003;30602;51.060;17.226;2023-03-14T01:58:42;32;26;17
44871;PMS7003;30602;51.060;17.226;2023-03-14T02:02:24;26;23;15
44871;PMS7003;30602;51.060;17.226;2023-03-14T02:06:26;18;15;11
44871;PMS7003;30602;51.060;17.226;2023-03-14T02:10:49;17;13;10
44871;PMS7003;30602;51.060;17.226;2023-03-14T02:14:14;13;13;11
44871;PMS7003;30602;51.060;17.226;2023-03-14T02:17:48;15;13;9
44871;PMS7003;30602;51.060;17.226;2023-03-14T02:25:11;12;11;10
44871;PMS7003;30602;51.060;17.226;2023-03-14T02:29:09;13;12;9
44871;PMS7003;30602;51.060;17.226;2023-03-14T02:33:07;14;10;8
44871;PMS7003;30602;51.060;17.226;2023-03-14T02:37:33;12;10;9
44871;PMS7003;30602;51.060;17.226;2023-03-14T02:41:36;11;11;8
44871;PMS7003;30602;51.060;17.226;2023-03-14T02:53:36;10;10;8
44871;PMS7003;30602;51.060;17.226;2023-03-14T02:57:40;11;11;8
44871;PMS7003;30602;51.060;17.226;2023-03-14T03:02:16;10;8;6
44871;PMS7003;30602;51.060;17.226;2023-03-14T03:05:57;11;9;6
44871;PMS7003;30602;51.060;17.226;2023-03-14T03:09:40;13;10;7
44871;PMS7003;30602;51.060;17.226;2023-03-14T03:13:33;13;11;9
44871;PMS7003;30602;51.060;17.226;2023-03-14T03:17:35;8;7;6
44871;PMS7003;30602;51.060;17.226;2023-03-14T03:25:28;8;7;5
44871;PMS7003;30602;51.060;17.226;2023-03-14T03:33:05;7;7;6
44871;PMS7003;30602;51.060;17.226;2023-03-14T03:37:21;7;7;5
44871;PMS7003;30602;51.060;17.226;2023-03-14T03:41:14;8;7;6
44871;PMS7003;30602;51.060;17.226;2023-03-14T03:45:07;6;5;4
44871;PMS7003;30602;51.060;17.226;2023-03-14T03:49:00;6;6;5
44871;PMS7003;30602;51.060;17.226;2023-03-14T03:56:31;7;5;4
44871;PMS7003;30602;51.060;17.226;2023-03-14T04:00:37;7;4;3
44871;PMS7003;30602;51.060;17.226;2023-03-14T04:04:00;4;4;3
44871;PMS7003;30602;51.060;17.226;2023-03-14T04:07:20;9;6;4
44871;PMS7003;30602;51.060;17.226;2023-03-14T04:10:42;8;6;5
44871;PMS7003;30602;51.060;17.226;2023-03-14T04:14:01;5;4;4
44871;PMS7003;30602;51.060;17.226;2023-03-14T04:18:06;4;4;3
44871;PMS7003;30602;51.060;17.226;2023-03-14T04:21:47;6;5;4
44871;PMS7003;30602;51.060;17.226;2023-03-14T04:25:09;8;7;4
44871;PMS7003;30602;51.060;17.226;2023-03-14T04:29:38;6;5;4
44871;PMS7003;30602;51.060;17.226;2023-03-14T04:33:31;7;6;5
44871;PMS7003;30602;51.060;17.226;2023-03-14T04:37:16;5;5;4
44871;PMS7003;30602;51.060;17.226;2023-03-14T04:41:08;5;5;4
44871;PMS7003;30602;51.060;17.226;2023-03-14T04:45:37;6;6;4
44871;PMS7003;30602;51.060;17.226;2023-03-14T04:49:34;7;5;5
44871;PMS7003;30602;51.060;17.226;2023-03-14T04:53:16;6;6;5
44871;PMS7003;30602;51.060;17.226;2023-03-14T04:56:39;7;6;4
44871;PMS7003;30602;51.060;17.226;2023-03-14T05:00:33;6;5;4
44871;PMS7003;30602;51.060;17.226;2023-03-14T05:04:00;8;7;5
44871;PMS7003;30602;51.060;17.226;2023-03-14T05:07:45;7;6;4
44871;PMS7003;30602;51.060;17.226;2023-03-14T05:11:41;6;6;4
44871;PMS7003;30602;51.060;17.226;2023-03-14T05:15:48;8;7;5
44871;PMS7003;30602;51.060;17.226;2023-03-14T05:20:01;10;8;7
44871;PMS7003;30602;51.060;17.226;2023-03-14T05:23:48;8;8;5
44871;PMS7003;30602;51.060;17.226;2023-03-14T05:27:54;7;7;6
44871;PMS7003;30602;51.060;17.226;2023-03-14T05:31:43;10;10;7
44871;PMS7003;30602;51.060;17.226;2023-03-14T05:35:28;25;24;16
44871;PMS7003;30602;51.060;17.226;2023-03-14T05:39:19;23;22;16
44871;PMS7003;30602;51.060;17.226;2023-03-14T05:42:41;15;14;10
44871;PMS7003;30602;51.060;17.226;2023-03-14T05:46:30;18;15;7
44871;PMS7003;30602;51.060;17.226;2023-03-14T05:49:53;11;10;7
44871;PMS7003;30602;51.060;17.226;2023-03-14T05:53:32;7;6;5
44871;PMS7003;30602;51.060;17.226;2023-03-14T05:56:50;8;8;5
44871;PMS7003;30602;51.060;17.226;2023-03-14T06:00:22;7;6;5
44871;PMS7003;30602;51.060;17.226;2023-03-14T06:04:04;9;8;7
44871;PMS7003;30602;51.060;17.226;2023-03-14T06:08:28;7;7;5
44871;PMS7003;30602;51.060;17.226;2023-03-14T06:11:58;8;6;4
44871;PMS7003;30602;51.060;17.226;2023-03-14T06:15:16;10;8;6
44871;PMS7003;30602;51.060;17.226;2023-03-14T06:19:09;8;6;6
44871;PMS7003;30602;51.060;17.226;2023-03-14T06:23:42;10;8;6
44871;PMS7003;30602;51.060;17.226;2023-03-14T06:27:50;11;8;7
44871;PMS7003;30602;51.060;17.226;2023-03-14T06:31:09;10;8;7
44871;PMS7003;30602;51.060;17.226;2023-03-14T06:34:56;9;8;7
44871;PMS7003;30602;51.060;17.226;2023-03-14T06:38:21;6;6;5
44871;PMS7003;30602;51.060;17.226;2023-03-14T06:41:55;12;8;6
44871;PMS7003;30602;51.060;17.226;2023-03-14T06:46:01;8;8;6
44871;PMS7003;30602;51.060;17.226;2023-03-14T06:49:42;9;8;6
44871;PMS7003;30602;51.060;17.226;2023-03-14T06:53:47;10;8;7
44871;PMS7003;30602;51.060;17.226;2023-03-14T07:01:25;9;9;7
44871;PMS7003;30602;51.060;17.226;2023-03-14T07:05:02;10;8;6
44871;PMS7003;30602;51.060;17.226;2023-03-14T07:08:23;9;7;6
44871;PMS7003;30602;51.060;17.226;2023-03-14T07:12:08;10;10;8
44871;PMS7003;30602;51.060;17.226;2023-03-14T07:15:56;8;5;5
44871;PMS7003;30602;51.060;17.226;2023-03-14T07:19:26;10;8;5
44871;PMS7003;30602;51.060;17.226;2023-03-14T07:23:19;7;7;5
44871;PMS7003;30602;51.060;17.226;2023-03-14T07:26:38;9;7;5
44871;PMS7003;30602;51.060;17.226;2023-03-14T07:30:51;9;7;6
44871;PMS7003;30602;51.060;17.226;2023-03-14T07:34:43;10;8;6
44871;PMS7003;30602;51.060;17.226;2023-03-14T07:42:07;10;8;7
44871;PMS7003;30602;51.060;17.226;2023-03-14T07:45:30;8;7;6
44871;PMS7003;30602;51.060;17.226;2023-03-14T07:48:52;9;8;7
44871;PMS7003;30602;51.060;17.226;2023-03-14T07:52:16;9;8;6
44871;PMS7003;30602;51.060;17.226;2023-03-14T07:55:56;7;7;6
44871;PMS7003;30602;51.060;17.226;2023-03-14T07:59:36;12;10;7
44871;PMS7003;30602;51.060;17.226;2023-03-14T08:03:30;11;9;6
44871;PMS7003;30602;51.060;17.226;2023-03-14T08:07:09;10;9;7
44871;PMS7003;30602;51.060;17.226;2023-03-14T08:11:08;11;8;6
44871;PMS7003;30602;51.060;17.226;2023-03-14T08:14:53;9;9;7
44871;PMS7003;30602;51.060;17.226;2023-03-14T08:19:10;11;11;9
44871;PMS7003;30602;51.060;17.226;2023-03-14T08:22:56;10;9;7
44871;PMS7003;30602;51.060;17.226;2023-03-14T08:27:02;11;10;7
44871;PMS7003;30602;51.060;17.226;2023-03-14T08:30:42;11;9;7
44871;PMS7003;30602;51.060;17.226;2023-03-14T08:34:24;12;11;7
44871;PMS7003;30602;51.060;17.226;2023-03-14T08:38:08;11;10;8
44871;PMS7003;30602;51.060;17.226;2023-03-14T08:41:49;11;11;7
44871;PMS7003;30602;51.060;17.226;2023-03-14T08:45:27;10;9;8
44871;PMS7003;30602;51.060;17.226;2023-03-14T08:48:59;19;15;10
44871;PMS7003;30602;51.060;17.226;2023-03-14T08:52:45;15;13;10
44871;PMS7003;30602;51.060;17.226;2023-03-14T08:56:04;19;14;10
44871;PMS7003;30602;51.060;17.226;2023-03-14T08:59:28;15;14;10
44871;PMS7003;30602;51.060;17.226;2023-03-14T09:03:18;17;12;10
44871;PMS7003;30602;51.060;17.226;2023-03-14T09:06:39;18;14;10
44871;PMS7003;30602;51.060;17.226;2023-03-14T09:10:52;13;12;9
44871;PMS7003;30602;51.060;17.226;2023-03-14T09:14:32;21;16;12
44871;PMS7003;30602;51.060;17.226;2023-03-14T09:18:16;14;11;8
44871;PMS7003;30602;51.060;17.226;2023-03-14T09:22:05;11;11;8
44871;PMS7003;30602;51.060;17.226;2023-03-14T09:30:06;16;11;8
44871;PMS7003;30602;51.060;17.226;2023-03-14T09:34:21;16;14;10
44871;PMS7003;30602;51.060;17.226;2023-03-14T09:38:17;11;11;8
44871;PMS7003;30602;51.060;17.226;2023-03-14T09:42:34;12;11;8
44871;PMS7003;30602;51.060;17.226;2023-03-14T09:46:36;11;10;8
44871;PMS7003;30602;51.060;17.226;2023-03-14T09:54:27;9;9;8
44871;PMS7003;30602;51.060;17.226;2023-03-14T09:57:43;11;11;8
44871;PMS7003;30602;51.060;17.226;2023-03-14T10:01:39;11;11;7
44871;PMS7003;30602;51.060;17.226;2023-03-14T10:05:17;10;10;7
44871;PMS7003;30602;51.060;17.226;2023-03-14T10:09:29;13;12;8
44871;PMS7003;30602;51.060;17.226;2023-03-14T10:18:01;13;12;8
44871;PMS7003;30602;51.060;17.226;2023-03-14T10:21:26;17;14;10
44871;PMS7003;30602;51.060;17.226;2023-03-14T10:25:59;13;11;9
44871;PMS7003;30602;51.060;17.226;2023-03-14T10:37:23;11;10;8
44871;PMS7003;30602;51.060;17.226;2023-03-14T10:49:36;15;12;10
44871;PMS7003;30602;51.060;17.226;2023-03-14T10:57:21;15;12;9
44871;PMS7003;30602;51.060;17.226;2023-03-14T11:00:39;11;10;8
44871;PMS7003;30602;51.060;17.226;2023-03-14T11:04:10;12;11;9
44871;PMS7003;30602;51.060;17.226;2023-03-14T11:11:41;13;10;8
44871;PMS7003;30602;51.060;17.226;2023-03-14T11:15:38;12;11;8
44871;PMS7003;30602;51.060;17.226;2023-03-14T11:22:59;12;11;9
44871;PMS7003;30602;51.060;17.226;2023-03-14T11:26:36;11;11;9
44871;PMS7003;30602;51.060;17.226;2023-03-14T11:30:34;12;10;8
44871;PMS7003;30602;51.060;17.226;2023-03-14T11:34:04;15;12;9
44871;PMS7003;30602;51.060;17.226;2023-03-14T11:38:18;11;11;8
44871;PMS7003;30602;51.060;17.226;2023-03-14T11:41:44;11;10;8
44871;PMS7003;30602;51.060;17.226;2023-03-14T11:45:30;12;9;8
44871;PMS7003;30602;51.060;17.226;2023-03-14T11:56:44;16;14;10
44871;PMS7003;30602;51.060;17.226;2023-03-14T12:00:13;14;12;10
44871;PMS7003;30602;51.060;17.226;2023-03-14T12:15:41;12;11;9
44871;PMS7003;30602;51.060;17.226;2023-03-14T12:19:29;13;13;10
44871;PMS7003;30602;51.060;17.226;2023-03-14T12:23:11;16;13;11
44871;PMS7003;30602;51.060;17.226;2023-03-14T12:27:13;12;11;9
44871;PMS7003;30602;51.060;17.226;2023-03-14T12:35:04;17;13;9
44871;PMS7003;30602;51.060;17.226;2023-03-14T12:39:04;11;10;8
44871;PMS7003;30602;51.060;17.226;2023-03-14T12:42:59;13;10;8
44871;PMS7003;30602;51.060;17.226;2023-03-14T12:57:53;14;11;9
44871;PMS7003;30602;51.060;17.226;2023-03-14T13:01:20;11;11;8
44871;PMS7003;30602;51.060;17.226;2023-03-14T13:05:09;16;13;9
44871;PMS7003;30602;51.060;17.226;2023-03-14T13:08:51;12;12;9
44871;PMS7003;30602;51.060;17.226;2023-03-14T13:12:38;14;12;8
44871;PMS7003;30602;51.060;17.226;2023-03-14T13:16:37;14;13;10
44871;PMS7003;30602;51.060;17.226;2023-03-14T13:20:02;17;14;11
44871;PMS7003;30602;51.060;17.226;2023-03-14T13:23:58;17;14;12
44871;PMS7003;30602;51.060;17.226;2023-03-14T13:27:47;12;12;9
44871;PMS7003;30602;51.060;17.226;2023-03-14T13:31:30;18;14;11
44871;PMS7003;30602;51.060;17.226;2023-03-14T13:34:51;13;11;9
44871;PMS7003;30602;51.060;17.226;2023-03-14T13:38:18;15;13;11
44871;PMS7003;30602;51.060;17.226;2023-03-14T13:42:01;11;8;7
44871;PMS7003;30602;51.060;17.226;2023-03-14T13:49:58;18;15;12
44871;PMS7003;30602;51.060;17.226;2023-03-14T13:53:54;14;13;10
44871;PMS7003;30602;51.060;17.226;2023-03-14T13:57:48;15;12;10
44871;PMS7003;30602;51.060;17.226;2023-03-14T14:01:52;14;11;10
44871;PMS7003;30602;51.060;17.226;2023-03-14T14:05:14;11;9;8
44871;PMS7003;30602;51.060;17.226;2023-03-14T14:09:39;15;10;8
44871;PMS7003;30602;51.060;17.226;2023-03-14T14:13:02;13;11;9
44871;PMS7003;30602;51.060;17.226;2023-03-14T14:17:18;12;9;7
44871;PMS7003;30602;51.060;17.226;2023-03-14T14:20:58;12;12;9
44871;PMS7003;30602;51.060;17.226;2023-03-14T14:24:43;11;10;8
44871;PMS7003;30602;51.060;17.226;2023-03-14T14:29:05;13;12;9
44871;PMS7003;30602;51.060;17.226;2023-03-14T14:32:54;10;8;7
44871;PMS7003;30602;51.060;17.226;2023-03-14T14:36:48;9;9;7
44871;PMS7003;30602;51.060;17.226;2023-03-14T14:40:31;11;10;8
44871;PMS7003;30602;51.060;17.226;2023-03-14T14:44:13;16;12;9
44871;PMS7003;30602;51.060;17.226;2023-03-14T14:47:47;13;11;9
44871;PMS7003;30602;51.060;17.226;2023-03-14T14:55:42;12;9;9
44871;PMS7003;30602;51.060;17.226;2023-03-14T14:59:27;12;12;11
44871;PMS7003;30602;51.060;17.226;2023-03-14T15:02:51;13;11;9
44871;PMS7003;30602;51.060;17.226;2023-03-14T15:06:37;16;12;10
44871;PMS7003;30602;51.060;17.226;2023-03-14T15:10:01;14;12;9
44871;PMS7003;30602;51.060;17.226;2023-03-14T15:14:03;17;14;10
44871;PMS7003;30602;51.060;17.226;2023-03-14T15:18:19;16;14;10
44871;PMS7003;30602;51.060;17.226;2023-03-14T15:22:12;17;12;10
44871;PMS7003;30602;51.060;17.226;2023-03-14T15:25:38;13;13;10
44871;PMS7003;30602;51.060;17.226;2023-03-14T15:29:06;15;13;10
44871;PMS7003;30602;51.060;17.226;2023-03-14T15:32:49;15;12;9
44871;PMS7003;30602;51.060;17.226;2023-03-14T15:36:35;14;13;11
44871;PMS7003;30602;51.060;17.226;2023-03-14T15:40:33;16;14;10
44871;PMS7003;30602;51.060;17.226;2023-03-14T15:44:22;15;12;10
44871;PMS7003;30602;51.060;17.226;2023-03-14T15:47:48;13;11;10
44871;PMS7003;30602;51.060;17.226;2023-03-14T15:51:28;16;13;10
44871;PMS7003;30602;51.060;17.226;2023-03-14T15:54:47;15;13;9
44871;PMS7003;30602;51.060;17.226;2023-03-14T15:58:33;14;14;10
44871;PMS7003;30602;51.060;17.226;2023-03-14T16:02:20;17;14;11
44871;PMS7003;30602;51.060;17.226;2023-03-14T16:05:39;13;13;10
44871;PMS7003;30602;51.060;17.226;2023-03-14T16:09:35;16;14;10
44871;PMS7003;30602;51.060;17.226;2023-03-14T16:13:28;12;12;9
44871;PMS7003;30602;51.060;17.226;2023-03-14T16:17:29;12;11;9
44871;PMS7003;30602;51.060;17.226;2023-03-14T16:21:13;15;12;9
44871;PMS7003;30602;51.060;17.226;2023-03-14T16:25:43;17;12;9
44871;PMS7003;30602;51.060;17.226;2023-03-14T16:29:03;14;11;9
44871;PMS7003;30602;51.060;17.226;2023-03-14T16:32:49;13;10;9
44871;PMS7003;30602;51.060;17.226;2023-03-14T16:36:34;12;11;8
44871;PMS7003;30602;51.060;17.226;2023-03-14T16:40:29;11;9;7
44871;PMS7003;30602;51.060;17.226;2023-03-14T16:48:04;14;12;9
44871;PMS7003;30602;51.060;17.226;2023-03-14T16:52:06;16;15;11
44871;PMS7003;30602;51.060;17.226;2023-03-14T16:55:25;14;11;9
44871;PMS7003;30602;51.060;17.226;2023-03-14T16:58:47;7;5;4
44871;PMS7003;30602;51.060;17.226;2023-03-14T17:02:22;14;10;7
44871;PMS7003;30602;51.060;17.226;2023-03-14T17:06:03;11;9;8
44871;PMS7003;30602;51.060;17.226;2023-03-14T17:09:53;9;9;7
44871;PMS7003;30602;51.060;17.226;2023-03-14T17:13:30;10;10;8
44871;PMS7003;30602;51.060;17.226;2023-03-14T17:16:51;15;14;9
44871;PMS7003;30602;51.060;17.226;2023-03-14T17:20:17;12;11;8
44871;PMS7003;30602;51.060;17.226;2023-03-14T17:23:42;19;13;10
44871;PMS7003;30602;51.060;17.226;2023-03-14T17:27:26;14;13;10
44871;PMS7003;30602;51.060;17.226;2023-03-14T17:31:19;12;12;8
44871;PMS7003;30602;51.060;17.226;2023-03-14T17:35:03;15;12;10
44871;PMS7003;30602;51.060;17.226;2023-03-14T17:38:45;14;12;10
44871;PMS7003;30602;51.060;17.226;2023-03-14T17:42:08;16;14;11
44871;PMS7003;30602;51.060;17.226;2023-03-14T17:45:57;16;15;11
44871;PMS7003;30602;51.060;17.226;2023-03-14T17:49:24;13;13;11
44871;PMS7003;30602;51.060;17.226;2023-03-14T17:53:03;17;16;12
44871;PMS7003;30602;51.060;17.226;2023-03-14T17:56:33;15;13;10
44871;PMS7003;30602;51.060;17.226;2023-03-14T18:00:17;12;10;8
44871;PMS7003;30602;51.060;17.226;2023-03-14T18:03:59;17;14;10
44871;PMS7003;30602;51.060;17.226;2023-03-14T18:07:53;19;15;11
44871;PMS7003;30602;51.060;17.226;2023-03-14T18:11:20;15;12;10
44871;PMS7003;30602;51.060;17.226;2023-03-14T18:15:08;16;14;11
44871;PMS7003;30602;51.060;17.226;2023-03-14T18:19:04;18;17;11
44871;PMS7003;30602;51.060;17.226;2023-03-14T18:22:22;15;14;11
44871;PMS7003;30602;51.060;17.226;2023-03-14T18:25:49;18;17;13
44871;PMS7003;30602;51.060;17.226;2023-03-14T18:29:12;17;17;13
44871;PMS7003;30602;51.060;17.226;2023-03-14T18:32:46;24;20;14
44871;PMS7003;30602;51.060;17.226;2023-03-14T18:36:14;20;18;14
44871;PMS7003;30602;51.060;17.226;2023-03-14T18:39:35;19;15;11
44871;PMS7003;30602;51.060;17.226;2023-03-14T18:43:06;17;16;12
44871;PMS7003;30602;51.060;17.226;2023-03-14T18:46:57;25;22;15
44871;PMS7003;30602;51.060;17.226;2023-03-14T18:50:37;23;20;12
44871;PMS7003;30602;51.060;17.226;2023-03-14T18:53:58;16;14;12
44871;PMS7003;30602;51.060;17.226;2023-03-14T18:57:38;13;13;10
44871;PMS7003;30602;51.060;17.226;2023-03-14T19:01:04;17;16;12
44871;PMS7003;30602;51.060;17.226;2023-03-14T19:04:44;14;12;10
44871;PMS7003;30602;51.060;17.226;2023-03-14T19:12:28;17;14;11
44871;PMS7003;30602;51.060;17.226;2023-03-14T19:16:18;13;13;10
44871;PMS7003;30602;51.060;17.226;2023-03-14T19:19:46;17;15;11
44871;PMS7003;30602;51.060;17.226;2023-03-14T19:27:30;16;16;11
44871;PMS7003;30602;51.060;17.226;2023-03-14T19:31:24;18;17;12
44871;PMS7003;30602;51.060;17.226;2023-03-14T19:34:48;22;21;14
44871;PMS7003;30602;51.060;17.226;2023-03-14T19:38:10;15;14;11
44871;PMS7003;30602;51.060;17.226;2023-03-14T19:42:05;20;16;11
44871;PMS7003;30602;51.060;17.226;2023-03-14T19:45:46;16;14;12
44871;PMS7003;30602;51.060;17.226;2023-03-14T19:49:26;18;16;12
44871;PMS7003;30602;51.060;17.226;2023-03-14T19:53:06;14;11;8
44871;PMS7003;30602;51.060;17.226;2023-03-14T19:56:39;13;13;10
44871;PMS7003;30602;51.060;17.226;2023-03-14T20:00:20;14;11;10
44871;PMS7003;30602;51.060;17.226;2023-03-14T20:07:51;7;6;5
44871;PMS7003;30602;51.060;17.226;2023-03-14T20:11:46;6;3;2
44871;PMS7003;30602;51.060;17.226;2023-03-14T20:15:09;1;1;0
44871;PMS7003;30602;51.060;17.226;2023-03-14T20:18:39;1;0;0
44871;PMS7003;30602;51.060;17.226;2023-03-14T20:22:44;9;8;5
44871;PMS7003;30602;51.060;17.226;2023-03-14T20:26:30;13;9;6
44871;PMS7003;30602;51.060;17.226;2023-03-14T20:29:58;4;4;3
44871;PMS7003;30602;51.060;17.226;2023-03-14T20:34:07;0;0;0
44871;PMS7003;30602;51.060;17.226;2023-03-14T20:37:54;0;0;0
44871;PMS7003;30602;51.060;17.226;2023-03-14T20:41:14;1;0;0
44871;PMS7003;30602;51.060;17.226;2023-03-14T20:44:53;0;0;0
44871;PMS7003;30602;51.060;17.226;2023-03-14T20:48:16;0;0;0
44871;PMS7003;30602;51.060;17.226;2023-03-14T20:56:28;1;1;1
44871;PMS7003;30602;51.060;17.226;2023-03-14T21:00:14;0;0;0
44871;PMS7003;30602;51.060;17.226;2023-03-14T21:03:56;2;1;0
44871;PMS7003;30602;51.060;17.226;2023-03-14T21:07:34;0;0;0
44871;PMS7003;30602;51.060;17.226;2023-03-14T21:11:20;0;0;0
44871;PMS7003;30602;51.060;17.226;2023-03-14T21:14:39;2;2;1
44871;PMS7003;30602;51.060;17.226;2023-03-14T21:17:58;6;4;3
44871;PMS7003;30602;51.060;17.226;2023-03-14T21:21:22;3;3;2
44871;PMS7003;30602;51.060;17.226;2023-03-14T21:25:01;4;3;3
44871;PMS7003;30602;51.060;17.226;2023-03-14T21:28:46;5;4;3
44871;PMS7003;30602;51.060;17.226;2023-03-14T21:32:16;8;5;3
44871;PMS7003;30602;51.060;17.226;2023-03-14T21:35:58;7;7;4
44871;PMS7003;30602;51.060;17.226;2023-03-14T21:39:17;14;13;8
44871;PMS7003;30602;51.060;17.226;2023-03-14T21:42:59;18;13;7
44871;PMS7003;30602;51.060;17.226;2023-03-14T21:46:21;16;14;10
44871;PMS7003;30602;51.060;17.226;2023-03-14T21:50:14;13;12;9
44871;PMS7003;30602;51.060;17.226;2023-03-14T21:53:42;4;4;3
44871;PMS7003;30602;51.060;17.226;2023-03-14T21:57:21;5;2;2
44871;PMS7003;30602;51.060;17.226;2023-03-14T22:00:46;6;4;3
44871;PMS7003;30602;51.060;17.226;2023-03-14T22:04:07;4;3;2
44871;PMS7003;30602;51.060;17.226;2023-03-14T22:07:46;4;2;2
44871;PMS7003;30602;51.060;17.226;2023-03-14T22:11:20;2;2;1
44871;PMS7003;30602;51.060;17.226;2023-03-14T22:14:52;3;1;1
44871;PMS7003;30602;51.060;17.226;2023-03-14T22:19:00;1;1;1
44871;PMS7003;30602;51.060;17.226;2023-03-14T22:22:50;1;1;0
44871;PMS7003;30602;51.060;17.226;2023-03-14T22:26:42;1;1;0
44871;PMS7003;30602;51.060;17.226;2023-03-14T22:30:02;4;2;0
44871;PMS7003;30602;51.060;17.226;2023-03-14T22:33:45;1;1;1
44871;PMS7003;30602;51.060;17.226;2023-03-14T22:37:30;1;1;1
44871;PMS7003;30602;51.060;17.226;2023-03-14T22:41:09;1;1;1
44871;PMS7003;30602;51.060;17.226;2023-03-14T22:44:49;1;1;0
44871;PMS7003;30602;51.060;17.226;2023-03-14T22:48:33;8;1;1
44871;PMS7003;30602;51.060;17.226;2023-03-14T22:51:52;3;2;1
44871;PMS7003;30602;51.060;17.226;2023-03-14T22:55:45;4;3;2
44871;PMS7003;30602;51.060;17.226;2023-03-14T22:59:14;0;0;0
44871;PMS7003;30602;51.060;17.226;2023-03-14T23:03:18;3;2;0
44871;PMS7003;30602;51.060;17.226;2023-03-14T23:06:42;2;2;1
44871;PMS7003;30602;51.060;17.226;2023-03-14T23:10:51;4;4;3
44871;PMS7003;30602;51.060;17.226;2023-03-14T23:14:54;3;3;1
44871;PMS7003;30602;51.060;17.226;2023-03-14T23:18:34;3;2;2
44871;PMS7003;30602;51.060;17.226;2023-03-14T23:22:01;4;2;2
44871;PMS7003;30602;51.060;17.226;2023-03-14T23:25:39;6;5;3
44871;PMS7003;30602;51.060;17.226;2023-03-14T23:29:45;5;3;3
44871;PMS7003;30602;51.060;17.226;2023-03-14T23:33:34;5;3;3
44871;PMS7003;30602;51.060;17.226;2023-03-14T23:36:56;6;6;3
44871;PMS7003;30602;51.060;17.226;2023-03-14T23:41:03;7;4;3
44871;PMS7003;30602;51.060;17.226;2023-03-14T23:44:24;6;3;3
44871;PMS7003;30602;51.060;17.226;2023-03-14T23:48:04;3;3;2
44871;PMS7003;30602;51.060;17.226;2023-03-14T23:51:23;7;5;4
44871;PMS7003;30602;51.060;17.226;2023-03-14T23:55:07;7;6;3
44871;PMS7003;30602;51.060;17.226;2023-03-14T23:58:49;4;3;2
